sensor_id;sensor_type;location;lat;lon;timestamp;pressure;altitude;pressure_sealevel;temperature;humidity
64521;BME280;50896;46.714;17.322;2023-02-28T00:01:10;101523.84;;;2.10;100.00
64521;BME280;50896;46.714;17.322;2023-02-28T00:03:37;101535.72;;;2.17;100.00
64521;BME280;50896;46.714;17.322;2023-02-28T00:06:05;101539.34;;;2.15;100.00
64521;BME280;50896;46.714;17.322;2023-02-28T00:08:32;101537.50;;;2.17;100.00
64521;BME280;50896;46.714;17.322;2023-02-28T00:11:02;101521.66;;;2.02;100.00
64521;BME280;50896;46.714;17.322;2023-02-28T00:13:29;101524.31;;;2.01;100.00
64521;BME280;50896;46.714;17.322;2023-02-28T00:16:05;101543.75;;;2.14;100.00
64521;BME280;50896;46.714;17.322;2023-02-28T00:18:33;101528.56;;;2.03;100.00
64521;BME280;50896;46.714;17.322;2023-02-28T00:21:00;101558.66;;;2.14;100.00
64521;BME280;50896;46.714;17.322;2023-02-28T00:23:27;101560.66;;;2.09;100.00
64521;BME280;50896;46.714;17.322;2023-02-28T00:25:54;101563.28;;;2.09;100.00
64521;BME280;50896;46.714;17.322;2023-02-28T00:28:22;101556.59;;;2.03;100.00
64521;BME280;50896;46.714;17.322;2023-02-28T00:30:49;101564.44;;;2.03;100.00
64521;BME280;50896;46.714;17.322;2023-02-28T00:33:16;101541.56;;;1.89;100.00
64521;BME280;50896;46.714;17.322;2023-02-28T00:35:43;101560.03;;;2.03;100.00
64521;BME280;50896;46.714;17.322;2023-02-28T00:38:13;101565.28;;;2.03;100.00
64521;BME280;50896;46.714;17.322;2023-02-28T00:40:40;101541.38;;;1.92;100.00
64521;BME280;50896;46.714;17.322;2023-02-28T00:43:07;101556.50;;;2.04;100.00
64521;BME280;50896;46.714;17.322;2023-02-28T00:45:34;101540.38;;;1.95;100.00
64521;BME280;50896;46.714;17.322;2023-02-28T00:48:00;101559.19;;;2.03;100.00
64521;BME280;50896;46.714;17.322;2023-02-28T00:50:27;101566.16;;;2.04;100.00
64521;BME280;50896;46.714;17.322;2023-02-28T00:52:56;101565.44;;;2.00;100.00
64521;BME280;50896;46.714;17.322;2023-02-28T00:55:23;101568.78;;;2.04;100.00
64521;BME280;50896;46.714;17.322;2023-02-28T00:57:50;101571.31;;;2.05;100.00
64521;BME280;50896;46.714;17.322;2023-02-28T01:00:17;101545.78;;;1.92;100.00
64521;BME280;50896;46.714;17.322;2023-02-28T01:02:44;101555.75;;;2.02;100.00
64521;BME280;50896;46.714;17.322;2023-02-28T01:05:10;101556.66;;;2.01;100.00
64521;BME280;50896;46.714;17.322;2023-02-28T01:07:37;101557.75;;;1.97;100.00
64521;BME280;50896;46.714;17.322;2023-02-28T01:10:05;101562.19;;;1.95;100.00
64521;BME280;50896;46.714;17.322;2023-02-28T01:12:32;101565.63;;;1.97;100.00
64521;BME280;50896;46.714;17.322;2023-02-28T01:14:58;101551.72;;;1.95;100.00
64521;BME280;50896;46.714;17.322;2023-02-28T01:17:25;101555.97;;;1.98;100.00
64521;BME280;50896;46.714;17.322;2023-02-28T01:19:54;101539.09;;;1.86;100.00
64521;BME280;50896;46.714;17.322;2023-02-28T01:22:24;101561.13;;;1.99;100.00
64521;BME280;50896;46.714;17.322;2023-02-28T01:24:51;101556.91;;;1.97;100.00
64521;BME280;50896;46.714;17.322;2023-02-28T01:27:18;101561.28;;;1.96;100.00
64521;BME280;50896;46.714;17.322;2023-02-28T01:29:44;101546.09;;;1.85;100.00
64521;BME280;50896;46.714;17.322;2023-02-28T01:32:11;101560.38;;;1.97;100.00
64521;BME280;50896;46.714;17.322;2023-02-28T01:34:38;101534.94;;;1.82;100.00
64521;BME280;50896;46.714;17.322;2023-02-28T01:37:05;101557.28;;;1.89;100.00
64521;BME280;50896;46.714;17.322;2023-02-28T01:39:32;101533.31;;;1.79;100.00
64521;BME280;50896;46.714;17.322;2023-02-28T01:41:58;101550.50;;;1.85;100.00
64521;BME280;50896;46.714;17.322;2023-02-28T01:45:04;101546.25;;;1.82;100.00
64521;BME280;50896;46.714;17.322;2023-02-28T01:47:36;101544.94;;;1.74;100.00
64521;BME280;50896;46.714;17.322;2023-02-28T01:50:07;101555.13;;;1.80;100.00
64521;BME280;50896;46.714;17.322;2023-02-28T01:52:36;101551.75;;;1.78;100.00
64521;BME280;50896;46.714;17.322;2023-02-28T01:55:05;101553.50;;;1.77;100.00
64521;BME280;50896;46.714;17.322;2023-02-28T01:57:38;101524.50;;;1.63;100.00
64521;BME280;50896;46.714;17.322;2023-02-28T02:00:12;101551.13;;;1.73;100.00
64521;BME280;50896;46.714;17.322;2023-02-28T02:02:47;101535.31;;;1.57;100.00
64521;BME280;50896;46.714;17.322;2023-02-28T02:05:19;101562.69;;;1.68;100.00
64521;BME280;50896;46.714;17.322;2023-02-28T02:07:50;101532.78;;;1.55;100.00
64521;BME280;50896;46.714;17.322;2023-02-28T02:10:21;101558.50;;;1.64;100.00
64521;BME280;50896;46.714;17.322;2023-02-28T02:13:21;101561.22;;;1.63;100.00
64521;BME280;50896;46.714;17.322;2023-02-28T02:18:52;101557.91;;;1.59;100.00
64521;BME280;50896;46.714;17.322;2023-02-28T02:24:13;101558.75;;;1.60;100.00
64521;BME280;50896;46.714;17.322;2023-02-28T02:35:38;101545.47;;;1.63;100.00
64521;BME280;50896;46.714;17.322;2023-02-28T02:38:32;101541.25;;;1.60;100.00
64521;BME280;50896;46.714;17.322;2023-02-28T02:41:26;101545.41;;;1.64;100.00
64521;BME280;50896;46.714;17.322;2023-02-28T02:44:02;101542.63;;;1.67;100.00
64521;BME280;50896;46.714;17.322;2023-02-28T02:46:40;101529.06;;;1.59;100.00
64521;BME280;50896;46.714;17.322;2023-02-28T02:49:14;101541.78;;;1.67;100.00
64521;BME280;50896;46.714;17.322;2023-02-28T02:51:42;101524.75;;;1.58;100.00
64521;BME280;50896;46.714;17.322;2023-02-28T02:54:27;101550.34;;;1.70;100.00
64521;BME280;50896;46.714;17.322;2023-02-28T02:56:58;101543.31;;;1.71;100.00
64521;BME280;50896;46.714;17.322;2023-02-28T02:59:28;101537.84;;;1.76;100.00
64521;BME280;50896;46.714;17.322;2023-02-28T03:01:59;101517.66;;;1.60;100.00
64521;BME280;50896;46.714;17.322;2023-02-28T03:04:30;101538.78;;;1.75;100.00
64521;BME280;50896;46.714;17.322;2023-02-28T03:06:59;101539.94;;;1.69;100.00
64521;BME280;50896;46.714;17.322;2023-02-28T03:09:26;101528.06;;;1.62;100.00
64521;BME280;50896;46.714;17.322;2023-02-28T03:11:54;101550.94;;;1.76;100.00
64521;BME280;50896;46.714;17.322;2023-02-28T03:20:21;101532.28;;;1.64;100.00
64521;BME280;50896;46.714;17.322;2023-02-28T03:30:35;101562.53;;;1.71;100.00
64521;BME280;50896;46.714;17.322;2023-02-28T03:33:13;101543.78;;;1.62;100.00
64521;BME280;50896;46.714;17.322;2023-02-28T03:35:54;101567.00;;;1.69;100.00
64521;BME280;50896;46.714;17.322;2023-02-28T03:38:25;101567.16;;;1.66;100.00
64521;BME280;50896;46.714;17.322;2023-02-28T03:44:15;101553.13;;;1.50;100.00
64521;BME280;50896;46.714;17.322;2023-02-28T03:46:50;101576.19;;;1.61;100.00
64521;BME280;50896;46.714;17.322;2023-02-28T03:49:27;101570.16;;;1.59;100.00
64521;BME280;50896;46.714;17.322;2023-02-28T03:51:59;101582.34;;;1.60;100.00
64521;BME280;50896;46.714;17.322;2023-02-28T03:54:29;101572.69;;;1.60;100.00
64521;BME280;50896;46.714;17.322;2023-02-28T03:59:43;101565.91;;;1.56;100.00
64521;BME280;50896;46.714;17.322;2023-02-28T04:02:11;101583.41;;;1.56;100.00
64521;BME280;50896;46.714;17.322;2023-02-28T04:04:38;101574.72;;;1.55;100.00
64521;BME280;50896;46.714;17.322;2023-02-28T04:07:07;101575.63;;;1.54;100.00
64521;BME280;50896;46.714;17.322;2023-02-28T04:09:34;101561.34;;;1.42;100.00
64521;BME280;50896;46.714;17.322;2023-02-28T04:12:01;101560.94;;;1.32;100.00
64521;BME280;50896;46.714;17.322;2023-02-28T04:14:28;101573.59;;;1.42;100.00
64521;BME280;50896;46.714;17.322;2023-02-28T04:16:54;101566.09;;;1.34;100.00
64521;BME280;50896;46.714;17.322;2023-02-28T04:19:21;101559.19;;;1.33;100.00
64521;BME280;50896;46.714;17.322;2023-02-28T04:21:51;101583.00;;;1.46;100.00
64521;BME280;50896;46.714;17.322;2023-02-28T04:24:23;101583.09;;;1.44;100.00
64521;BME280;50896;46.714;17.322;2023-02-28T04:26:52;101584.84;;;1.44;100.00
64521;BME280;50896;46.714;17.322;2023-02-28T04:29:26;101586.41;;;1.48;100.00
64521;BME280;50896;46.714;17.322;2023-02-28T04:31:54;101572.69;;;1.43;100.00
64521;BME280;50896;46.714;17.322;2023-02-28T04:34:21;101572.38;;;1.49;100.00
64521;BME280;50896;46.714;17.322;2023-02-28T04:36:48;101576.84;;;1.47;100.00
64521;BME280;50896;46.714;17.322;2023-02-28T04:39:39;101559.03;;;1.36;100.00
64521;BME280;50896;46.714;17.322;2023-02-28T04:42:06;101587.25;;;1.48;100.00
64521;BME280;50896;46.714;17.322;2023-02-28T04:44:33;101580.31;;;1.47;100.00
64521;BME280;50896;46.714;17.322;2023-02-28T04:46:59;101582.22;;;1.44;100.00
64521;BME280;50896;46.714;17.322;2023-02-28T04:49:26;101584.84;;;1.44;100.00
64521;BME280;50896;46.714;17.322;2023-02-28T04:51:53;101587.53;;;1.42;100.00
64521;BME280;50896;46.714;17.322;2023-02-28T04:54:20;101568.13;;;1.29;100.00
64521;BME280;50896;46.714;17.322;2023-02-28T04:56:47;101589.25;;;1.43;100.00
64521;BME280;50896;46.714;17.322;2023-02-28T04:59:16;101584.31;;;1.37;100.00
64521;BME280;50896;46.714;17.322;2023-02-28T05:01:46;101592.31;;;1.34;100.00
64521;BME280;50896;46.714;17.322;2023-02-28T05:04:13;101591.47;;;1.33;100.00
64521;BME280;50896;46.714;17.322;2023-02-28T05:06:40;101572.78;;;1.22;100.00
64521;BME280;50896;46.714;17.322;2023-02-28T05:09:07;101591.31;;;1.36;100.00
64521;BME280;50896;46.714;17.322;2023-02-28T05:11:34;101576.16;;;1.24;100.00
64521;BME280;50896;46.714;17.322;2023-02-28T05:14:03;101591.78;;;1.27;100.00
64521;BME280;50896;46.714;17.322;2023-02-28T05:16:31;101595.94;;;1.31;100.00
64521;BME280;50896;46.714;17.322;2023-02-28T05:18:58;101584.81;;;1.26;100.00
64521;BME280;50896;46.714;17.322;2023-02-28T05:23:59;101597.84;;;1.28;100.00
64521;BME280;50896;46.714;17.322;2023-02-28T05:26:26;101590.00;;;1.28;100.00
64521;BME280;50896;46.714;17.322;2023-02-28T05:28:54;101570.31;;;1.19;100.00
64521;BME280;50896;46.714;17.322;2023-02-28T05:31:21;101601.19;;;1.31;100.00
64521;BME280;50896;46.714;17.322;2023-02-28T05:33:48;101609.31;;;1.25;100.00
64521;BME280;50896;46.714;17.322;2023-02-28T05:36:15;101595.72;;;1.17;100.00
64521;BME280;50896;46.714;17.322;2023-02-28T05:38:42;101601.31;;;1.28;100.00
64521;BME280;50896;46.714;17.322;2023-02-28T05:41:11;101606.69;;;1.25;100.00
64521;BME280;50896;46.714;17.322;2023-02-28T05:43:38;101602.38;;;1.24;100.00
64521;BME280;50896;46.714;17.322;2023-02-28T05:46:10;101590.72;;;1.12;100.00
64521;BME280;50896;46.714;17.322;2023-02-28T05:48:38;101602.91;;;1.13;100.00
64521;BME280;50896;46.714;17.322;2023-02-28T05:51:07;101600.06;;;1.18;100.00
64521;BME280;50896;46.714;17.322;2023-02-28T05:53:34;101602.19;;;1.10;100.00
64521;BME280;50896;46.714;17.322;2023-02-28T05:56:02;101613.81;;;1.23;100.00
64521;BME280;50896;46.714;17.322;2023-02-28T05:58:29;101604.56;;;1.14;100.00
64521;BME280;50896;46.714;17.322;2023-02-28T06:00:58;101623.34;;;1.24;100.00
64521;BME280;50896;46.714;17.322;2023-02-28T06:03:26;101601.97;;;1.14;100.00
64521;BME280;50896;46.714;17.322;2023-02-28T06:05:53;101598.72;;;1.09;100.00
64521;BME280;50896;46.714;17.322;2023-02-28T06:08:20;101629.22;;;1.29;100.00
64521;BME280;50896;46.714;17.322;2023-02-28T06:10:47;101635.25;;;1.31;100.00
64521;BME280;50896;46.714;17.322;2023-02-28T06:13:14;101648.34;;;1.31;100.00
64521;BME280;50896;46.714;17.322;2023-02-28T06:15:42;101630.50;;;1.21;100.00
64521;BME280;50896;46.714;17.322;2023-02-28T06:18:08;101650.09;;;1.31;100.00
64521;BME280;50896;46.714;17.322;2023-02-28T06:20:35;101624.34;;;1.22;100.00
64521;BME280;50896;46.714;17.322;2023-02-28T06:23:03;101650.75;;;1.36;100.00
64521;BME280;50896;46.714;17.322;2023-02-28T06:25:29;101666.25;;;1.41;100.00
64521;BME280;50896;46.714;17.322;2023-02-28T06:27:56;101650.97;;;1.31;100.00
64521;BME280;50896;46.714;17.322;2023-02-28T06:30:23;101673.41;;;1.37;100.00
64521;BME280;50896;46.714;17.322;2023-02-28T06:32:54;101674.91;;;1.43;100.00
64521;BME280;50896;46.714;17.322;2023-02-28T06:35:21;101683.38;;;1.48;100.00
64521;BME280;50896;46.714;17.322;2023-02-28T06:37:48;101678.00;;;1.51;100.00
64521;BME280;50896;46.714;17.322;2023-02-28T06:40:15;101682.25;;;1.53;100.00
64521;BME280;50896;46.714;17.322;2023-02-28T06:42:42;101678.13;;;1.48;100.00
64521;BME280;50896;46.714;17.322;2023-02-28T06:45:10;101680.47;;;1.54;100.00
64521;BME280;50896;46.714;17.322;2023-02-28T06:47:38;101665.19;;;1.45;100.00
64521;BME280;50896;46.714;17.322;2023-02-28T06:50:07;101662.28;;;1.51;100.00
64521;BME280;50896;46.714;17.322;2023-02-28T06:52:34;101680.97;;;1.62;100.00
64521;BME280;50896;46.714;17.322;2023-02-28T06:55:05;101683.50;;;1.64;100.00
64521;BME280;50896;46.714;17.322;2023-02-28T06:57:34;101678.28;;;1.64;100.00
64521;BME280;50896;46.714;17.322;2023-02-28T07:00:05;101663.91;;;1.53;100.00
64521;BME280;50896;46.714;17.322;2023-02-28T07:02:37;101681.66;;;1.66;100.00
64521;BME280;50896;46.714;17.322;2023-02-28T07:05:04;101682.94;;;1.76;100.00
64521;BME280;50896;46.714;17.322;2023-02-28T07:07:31;101667.00;;;1.62;100.00
64521;BME280;50896;46.714;17.322;2023-02-28T07:09:59;101667.56;;;1.68;100.00
64521;BME280;50896;46.714;17.322;2023-02-28T07:12:25;101688.84;;;1.80;100.00
64521;BME280;50896;46.714;17.322;2023-02-28T07:14:52;101683.34;;;1.86;100.00
64521;BME280;50896;46.714;17.322;2023-02-28T07:17:21;101684.16;;;1.86;100.00
64521;BME280;50896;46.714;17.322;2023-02-28T07:19:47;101682.38;;;1.87;100.00
64521;BME280;50896;46.714;17.322;2023-02-28T07:22:14;101689.19;;;1.91;100.00
64521;BME280;50896;46.714;17.322;2023-02-28T07:24:41;101683.94;;;1.91;100.00
64521;BME280;50896;46.714;17.322;2023-02-28T07:27:08;101676.06;;;1.91;100.00
64521;BME280;50896;46.714;17.322;2023-02-28T07:29:35;101680.56;;;1.89;100.00
64521;BME280;50896;46.714;17.322;2023-02-28T07:32:01;101672.53;;;1.92;100.00
64521;BME280;50896;46.714;17.322;2023-02-28T07:34:28;101678.00;;;2.05;100.00
64521;BME280;50896;46.714;17.322;2023-02-28T07:36:55;101690.06;;;2.09;100.00
64521;BME280;50896;46.714;17.322;2023-02-28T07:39:22;101678.63;;;2.10;100.00
64521;BME280;50896;46.714;17.322;2023-02-28T07:41:49;101684.44;;;2.17;100.00
64521;BME280;50896;46.714;17.322;2023-02-28T07:44:16;101681.97;;;2.14;100.00
64521;BME280;50896;46.714;17.322;2023-02-28T07:46:43;101684.03;;;2.25;100.00
64521;BME280;50896;46.714;17.322;2023-02-28T07:49:10;101688.06;;;2.32;100.00
64521;BME280;50896;46.714;17.322;2023-02-28T07:51:36;101689.75;;;2.33;100.00
64521;BME280;50896;46.714;17.322;2023-02-28T07:54:03;101680.88;;;2.35;100.00
64521;BME280;50896;46.714;17.322;2023-02-28T07:56:30;101680.50;;;2.43;100.00
64521;BME280;50896;46.714;17.322;2023-02-28T07:58:57;101671.84;;;2.41;100.00
64521;BME280;50896;46.714;17.322;2023-02-28T08:01:25;101681.72;;;2.53;100.00
64521;BME280;50896;46.714;17.322;2023-02-28T08:03:52;101689.97;;;2.63;94.14
64521;BME280;50896;46.714;17.322;2023-02-28T08:06:22;101674.38;;;2.60;92.00
64521;BME280;50896;46.714;17.322;2023-02-28T08:08:49;101672.38;;;2.65;90.25
64521;BME280;50896;46.714;17.322;2023-02-28T08:11:17;101678.91;;;2.74;87.03
64521;BME280;50896;46.714;17.322;2023-02-28T08:13:45;101667.78;;;2.69;87.74
64521;BME280;50896;46.714;17.322;2023-02-28T08:16:13;101662.06;;;2.78;87.90
64521;BME280;50896;46.714;17.322;2023-02-28T08:18:44;101691.97;;;2.91;86.06
64521;BME280;50896;46.714;17.322;2023-02-28T08:21:11;101692.78;;;2.94;87.57
64521;BME280;50896;46.714;17.322;2023-02-28T08:23:38;101699.88;;;2.91;86.80
64521;BME280;50896;46.714;17.322;2023-02-28T08:26:05;101655.34;;;2.72;88.80
64521;BME280;50896;46.714;17.322;2023-02-28T08:28:32;101683.63;;;3.01;88.46
64521;BME280;50896;46.714;17.322;2023-02-28T08:30:59;101663.78;;;2.95;88.25
64521;BME280;50896;46.714;17.322;2023-02-28T08:33:27;101678.28;;;3.02;89.41
64521;BME280;50896;46.714;17.322;2023-02-28T08:35:55;101681.63;;;3.22;87.28
64521;BME280;50896;46.714;17.322;2023-02-28T08:38:23;101659.50;;;3.10;86.13
64521;BME280;50896;46.714;17.322;2023-02-28T08:40:50;101687.03;;;3.03;86.40
64521;BME280;50896;46.714;17.322;2023-02-28T08:43:16;101693.47;;;3.13;88.08
64521;BME280;50896;46.714;17.322;2023-02-28T08:45:43;101698.91;;;3.26;86.65
64521;BME280;50896;46.714;17.322;2023-02-28T08:48:10;101694.78;;;3.38;86.34
64521;BME280;50896;46.714;17.322;2023-02-28T08:50:37;101688.16;;;3.47;85.57
64521;BME280;50896;46.714;17.322;2023-02-28T08:53:04;101692.66;;;3.61;84.80
64521;BME280;50896;46.714;17.322;2023-02-28T08:55:31;101697.31;;;3.55;83.60
64521;BME280;50896;46.714;17.322;2023-02-28T08:57:57;101701.31;;;3.47;84.13
64521;BME280;50896;46.714;17.322;2023-02-28T09:00:25;101695.78;;;3.35;82.52
64521;BME280;50896;46.714;17.322;2023-02-28T09:02:52;101698.94;;;3.42;82.84
64521;BME280;50896;46.714;17.322;2023-02-28T09:05:19;101697.31;;;3.39;82.93
64521;BME280;50896;46.714;17.322;2023-02-28T09:07:45;101695.53;;;3.40;81.16
64521;BME280;50896;46.714;17.322;2023-02-28T09:10:12;101697.41;;;3.38;81.19
64521;BME280;50896;46.714;17.322;2023-02-28T09:12:39;101700.53;;;3.45;81.12
64521;BME280;50896;46.714;17.322;2023-02-28T09:15:06;101707.25;;;3.34;82.22
64521;BME280;50896;46.714;17.322;2023-02-28T09:17:33;101703.00;;;3.48;81.84
64521;BME280;50896;46.714;17.322;2023-02-28T09:20:00;101707.84;;;3.55;81.67
64521;BME280;50896;46.714;17.322;2023-02-28T09:22:30;101689.97;;;3.46;80.40
64521;BME280;50896;46.714;17.322;2023-02-28T09:24:57;101700.38;;;3.64;78.73
64521;BME280;50896;46.714;17.322;2023-02-28T09:27:23;101701.38;;;3.77;78.34
64521;BME280;50896;46.714;17.322;2023-02-28T09:29:50;101699.50;;;3.79;78.46
64521;BME280;50896;46.714;17.322;2023-02-28T09:32:17;101686.38;;;3.63;80.52
64521;BME280;50896;46.714;17.322;2023-02-28T09:34:44;101704.34;;;3.71;82.09
64521;BME280;50896;46.714;17.322;2023-02-28T09:37:11;101698.75;;;3.77;80.74
64521;BME280;50896;46.714;17.322;2023-02-28T09:39:38;101694.75;;;3.86;80.91
64521;BME280;50896;46.714;17.322;2023-02-28T09:42:05;101697.38;;;3.86;79.04
64521;BME280;50896;46.714;17.322;2023-02-28T09:44:43;101692.31;;;3.83;79.31
64521;BME280;50896;46.714;17.322;2023-02-28T09:47:28;101678.13;;;3.85;77.91
64521;BME280;50896;46.714;17.322;2023-02-28T09:49:59;101709.56;;;4.03;76.86
64521;BME280;50896;46.714;17.322;2023-02-28T09:52:31;101693.28;;;3.96;76.22
64521;BME280;50896;46.714;17.322;2023-02-28T09:55:19;101695.66;;;4.01;73.10
64521;BME280;50896;46.714;17.322;2023-02-28T09:57:46;101701.34;;;3.93;76.24
64521;BME280;50896;46.714;17.322;2023-02-28T10:08:50;101680.16;;;3.80;77.52
64521;BME280;50896;46.714;17.322;2023-02-28T10:11:19;101695.56;;;4.02;76.94
64521;BME280;50896;46.714;17.322;2023-02-28T10:14:00;101698.78;;;4.07;77.18
64521;BME280;50896;46.714;17.322;2023-02-28T10:22:20;101690.66;;;4.26;78.72
64521;BME280;50896;46.714;17.322;2023-02-28T10:24:52;101692.66;;;4.37;76.73
64521;BME280;50896;46.714;17.322;2023-02-28T10:27:25;101687.31;;;4.39;76.92
64521;BME280;50896;46.714;17.322;2023-02-28T10:29:54;101693.06;;;4.45;74.38
64521;BME280;50896;46.714;17.322;2023-02-28T10:32:26;101668.69;;;4.42;75.82
64521;BME280;50896;46.714;17.322;2023-02-28T10:34:59;101678.59;;;4.53;75.79
64521;BME280;50896;46.714;17.322;2023-02-28T10:37:28;101681.91;;;4.71;76.68
64521;BME280;50896;46.714;17.322;2023-02-28T10:39:55;101654.97;;;4.51;74.48
64521;BME280;50896;46.714;17.322;2023-02-28T10:42:27;101683.59;;;4.72;75.21
64521;BME280;50896;46.714;17.322;2023-02-28T10:45:14;101687.66;;;4.77;74.54
64521;BME280;50896;46.714;17.322;2023-02-28T10:55:42;101662.22;;;4.91;72.92
64521;BME280;50896;46.714;17.322;2023-02-28T10:58:24;101638.41;;;4.92;71.76
64521;BME280;50896;46.714;17.322;2023-02-28T11:00:51;101658.91;;;5.16;72.10
64521;BME280;50896;46.714;17.322;2023-02-28T11:03:30;101647.69;;;5.27;71.45
64521;BME280;50896;46.714;17.322;2023-02-28T11:06:03;101651.00;;;5.16;72.15
64521;BME280;50896;46.714;17.322;2023-02-28T11:08:30;101649.22;;;5.17;71.88
64521;BME280;50896;46.714;17.322;2023-02-28T11:10:59;101649.69;;;5.23;71.72
64521;BME280;50896;46.714;17.322;2023-02-28T11:13:32;101640.72;;;5.26;71.89
64521;BME280;50896;46.714;17.322;2023-02-28T11:16:06;101635.41;;;5.40;71.63
64521;BME280;50896;46.714;17.322;2023-02-28T11:18:48;101624.88;;;5.26;71.12
64521;BME280;50896;46.714;17.322;2023-02-28T11:21:21;101617.22;;;5.36;70.68
64521;BME280;50896;46.714;17.322;2023-02-28T11:23:51;101623.91;;;5.41;71.88
64521;BME280;50896;46.714;17.322;2023-02-28T11:26:38;101615.22;;;5.26;71.47
64521;BME280;50896;46.714;17.322;2023-02-28T11:29:25;101593.22;;;5.40;70.32
64521;BME280;50896;46.714;17.322;2023-02-28T11:34:38;101596.69;;;6.21;69.57
64521;BME280;50896;46.714;17.322;2023-02-28T11:37:15;101601.66;;;6.26;69.35
64521;BME280;50896;46.714;17.322;2023-02-28T11:39:44;101604.06;;;6.42;67.91
64521;BME280;50896;46.714;17.322;2023-02-28T11:47:50;101600.09;;;6.99;54.56
64521;BME280;50896;46.714;17.322;2023-02-28T11:50:39;101596.78;;;7.08;52.87
64521;BME280;50896;46.714;17.322;2023-02-28T11:53:35;101583.81;;;7.89;48.21
64521;BME280;50896;46.714;17.322;2023-02-28T11:59:28;101580.78;;;8.29;45.84
64521;BME280;50896;46.714;17.322;2023-02-28T12:05:13;101565.63;;;8.77;45.88
64521;BME280;50896;46.714;17.322;2023-02-28T12:10:37;101558.84;;;8.27;46.29
64521;BME280;50896;46.714;17.322;2023-02-28T12:13:24;101534.28;;;7.67;46.65
64521;BME280;50896;46.714;17.322;2023-02-28T12:22:10;101551.41;;;7.39;48.14
64521;BME280;50896;46.714;17.322;2023-02-28T12:27:23;101540.31;;;7.09;49.31
64521;BME280;50896;46.714;17.322;2023-02-28T12:30:16;101545.28;;;6.77;48.89
64521;BME280;50896;46.714;17.322;2023-02-28T12:32:49;101538.81;;;6.31;49.03
64521;BME280;50896;46.714;17.322;2023-02-28T12:35:28;101520.84;;;6.10;49.56
64521;BME280;50896;46.714;17.322;2023-02-28T12:38:18;101525.38;;;6.08;51.46
64521;BME280;50896;46.714;17.322;2023-02-28T12:41:03;101528.09;;;5.94;53.92
64521;BME280;50896;46.714;17.322;2023-02-28T12:43:38;101519.56;;;5.90;53.52
64521;BME280;50896;46.714;17.322;2023-02-28T12:46:11;101539.00;;;6.02;52.77
64521;BME280;50896;46.714;17.322;2023-02-28T12:48:43;101533.44;;;6.20;51.88
64521;BME280;50896;46.714;17.322;2023-02-28T12:51:12;101529.41;;;6.01;51.36
64521;BME280;50896;46.714;17.322;2023-02-28T12:53:54;101533.38;;;5.94;52.17
64521;BME280;50896;46.714;17.322;2023-02-28T13:02:27;101534.84;;;5.85;51.38
64521;BME280;50896;46.714;17.322;2023-02-28T13:10:00;101536.16;;;5.52;50.99
64521;BME280;50896;46.714;17.322;2023-02-28T13:12:28;101520.13;;;5.55;52.28
64521;BME280;50896;46.714;17.322;2023-02-28T13:17:48;101521.28;;;5.51;50.91
64521;BME280;50896;46.714;17.322;2023-02-28T13:20:19;101514.66;;;5.58;50.80
64521;BME280;50896;46.714;17.322;2023-02-28T13:22:48;101511.97;;;5.45;50.67
64521;BME280;50896;46.714;17.322;2023-02-28T13:27:53;101510.47;;;5.28;50.93
64521;BME280;50896;46.714;17.322;2023-02-28T13:36:07;101510.72;;;5.51;50.91
64521;BME280;50896;46.714;17.322;2023-02-28T13:44:14;101508.63;;;5.43;51.05
64521;BME280;50896;46.714;17.322;2023-02-28T13:49:31;101519.81;;;5.47;52.30
64521;BME280;50896;46.714;17.322;2023-02-28T13:57:41;101488.63;;;5.26;55.08
64521;BME280;50896;46.714;17.322;2023-02-28T14:05:34;101507.69;;;5.44;57.43
64521;BME280;50896;46.714;17.322;2023-02-28T14:08:28;101499.75;;;5.44;55.91
64521;BME280;50896;46.714;17.322;2023-02-28T14:11:05;101500.03;;;5.40;56.23
64521;BME280;50896;46.714;17.322;2023-02-28T14:13:45;101489.72;;;5.37;56.57
64521;BME280;50896;46.714;17.322;2023-02-28T14:16:17;101492.41;;;5.22;57.96
64521;BME280;50896;46.714;17.322;2023-02-28T14:19:01;101496.56;;;5.26;57.72
64521;BME280;50896;46.714;17.322;2023-02-28T14:21:35;101494.66;;;5.28;56.80
64521;BME280;50896;46.714;17.322;2023-02-28T14:24:29;101490.63;;;5.23;57.91
64521;BME280;50896;46.714;17.322;2023-02-28T14:27:21;101487.88;;;5.24;57.98
64521;BME280;50896;46.714;17.322;2023-02-28T14:36:03;101474.88;;;5.08;60.06
64521;BME280;50896;46.714;17.322;2023-02-28T14:41:16;101476.16;;;4.88;60.01
64521;BME280;50896;46.714;17.322;2023-02-28T14:44:15;101480.59;;;4.88;61.85
64521;BME280;50896;46.714;17.322;2023-02-28T14:46:44;101479.94;;;4.84;62.78
64521;BME280;50896;46.714;17.322;2023-02-28T14:49:26;101475.84;;;4.80;62.36
64521;BME280;50896;46.714;17.322;2023-02-28T14:52:05;101473.63;;;4.87;62.75
64521;BME280;50896;46.714;17.322;2023-02-28T14:54:33;101454.66;;;4.67;62.61
64521;BME280;50896;46.714;17.322;2023-02-28T14:57:00;101472.34;;;4.79;63.46
64521;BME280;50896;46.714;17.322;2023-02-28T14:59:28;101476.66;;;4.81;64.99
64521;BME280;50896;46.714;17.322;2023-02-28T15:04:53;101472.53;;;4.76;63.76
64521;BME280;50896;46.714;17.322;2023-02-28T15:07:21;101473.47;;;4.75;62.40
64521;BME280;50896;46.714;17.322;2023-02-28T15:10:30;101469.06;;;4.76;64.03
64521;BME280;50896;46.714;17.322;2023-02-28T15:13:05;101453.28;;;4.61;65.33
64521;BME280;50896;46.714;17.322;2023-02-28T15:15:43;101450.00;;;4.58;65.39
64521;BME280;50896;46.714;17.322;2023-02-28T15:21:23;101461.66;;;4.68;64.24
64521;BME280;50896;46.714;17.322;2023-02-28T15:23:58;101476.97;;;4.76;64.76
64521;BME280;50896;46.714;17.322;2023-02-28T15:26:31;101468.75;;;4.81;65.32